sensor_id;sensor_type;location;lat;lon;timestamp;P1;durP1;ratioP1;P2;durP2;ratioP2
48765;SDS011;65794;51.836;5.002;2023-01-20T00:00:26;20.05;;;8.13;;
48765;SDS011;65794;51.836;5.002;2023-01-20T00:02:53;22.63;;;7.15;;
48765;SDS011;65794;51.836;5.002;2023-01-20T00:05:20;20.65;;;9.02;;
48765;SDS011;65794;51.836;5.002;2023-01-20T00:07:47;27.38;;;9.63;;
48765;SDS011;65794;51.836;5.002;2023-01-20T00:10:14;31.58;;;11.30;;
48765;SDS011;65794;51.836;5.002;2023-01-20T00:12:40;30.27;;;10.80;;
48765;SDS011;65794;51.836;5.002;2023-01-20T00:15:08;30.65;;;9.95;;
48765;SDS011;65794;51.836;5.002;2023-01-20T00:17:35;25.55;;;10.10;;
48765;SDS011;65794;51.836;5.002;2023-01-20T00:20:03;31.75;;;11.93;;
48765;SDS011;65794;51.836;5.002;2023-01-20T00:22:30;28.42;;;11.23;;
48765;SDS011;65794;51.836;5.002;2023-01-20T00:24:57;28.58;;;10.68;;
48765;SDS011;65794;51.836;5.002;2023-01-20T00:27:24;34.03;;;11.73;;
48765;SDS011;65794;51.836;5.002;2023-01-20T00:29:50;35.53;;;12.85;;
48765;SDS011;65794;51.836;5.002;2023-01-20T00:32:17;39.92;;;13.57;;
48765;SDS011;65794;51.836;5.002;2023-01-20T00:34:44;34.88;;;13.35;;
48765;SDS011;65794;51.836;5.002;2023-01-20T00:37:11;42.03;;;13.40;;
48765;SDS011;65794;51.836;5.002;2023-01-20T00:39:38;32.08;;;12.73;;
48765;SDS011;65794;51.836;5.002;2023-01-20T00:42:05;39.47;;;14.50;;
48765;SDS011;65794;51.836;5.002;2023-01-20T00:44:32;37.55;;;13.32;;
48765;SDS011;65794;51.836;5.002;2023-01-20T00:46:59;43.83;;;15.90;;
48765;SDS011;65794;51.836;5.002;2023-01-20T00:49:26;42.17;;;15.13;;
48765;SDS011;65794;51.836;5.002;2023-01-20T00:51:53;43.08;;;13.75;;
48765;SDS011;65794;51.836;5.002;2023-01-20T00:54:20;49.97;;;15.52;;
48765;SDS011;65794;51.836;5.002;2023-01-20T00:56:47;47.75;;;16.15;;
48765;SDS011;65794;51.836;5.002;2023-01-20T00:59:14;60.05;;;17.67;;
48765;SDS011;65794;51.836;5.002;2023-01-20T01:01:40;51.15;;;16.85;;
48765;SDS011;65794;51.836;5.002;2023-01-20T01:04:08;56.90;;;18.88;;
48765;SDS011;65794;51.836;5.002;2023-01-20T01:06:35;59.78;;;18.48;;
48765;SDS011;65794;51.836;5.002;2023-01-20T01:09:02;67.50;;;19.88;;
48765;SDS011;65794;51.836;5.002;2023-01-20T01:11:29;57.40;;;17.75;;
48765;SDS011;65794;51.836;5.002;2023-01-20T01:13:56;48.85;;;16.75;;
48765;SDS011;65794;51.836;5.002;2023-01-20T01:16:23;63.50;;;20.33;;
48765;SDS011;65794;51.836;5.002;2023-01-20T01:18:51;75.63;;;21.60;;
48765;SDS011;65794;51.836;5.002;2023-01-20T01:21:19;62.63;;;18.40;;
48765;SDS011;65794;51.836;5.002;2023-01-20T01:23:46;88.13;;;23.63;;
48765;SDS011;65794;51.836;5.002;2023-01-20T01:26:13;67.00;;;18.67;;
48765;SDS011;65794;51.836;5.002;2023-01-20T01:28:40;75.65;;;23.10;;
48765;SDS011;65794;51.836;5.002;2023-01-20T01:31:07;74.78;;;22.65;;
48765;SDS011;65794;51.836;5.002;2023-01-20T01:33:34;84.15;;;23.70;;
48765;SDS011;65794;51.836;5.002;2023-01-20T01:36:02;81.75;;;24.77;;
48765;SDS011;65794;51.836;5.002;2023-01-20T01:38:29;70.40;;;21.58;;
48765;SDS011;65794;51.836;5.002;2023-01-20T01:40:56;85.88;;;24.35;;
48765;SDS011;65794;51.836;5.002;2023-01-20T01:43:34;90.32;;;24.55;;
48765;SDS011;65794;51.836;5.002;2023-01-20T01:46:01;76.85;;;23.63;;
48765;SDS011;65794;51.836;5.002;2023-01-20T01:48:30;83.15;;;24.45;;
48765;SDS011;65794;51.836;5.002;2023-01-20T01:51:04;74.60;;;21.67;;
48765;SDS011;65794;51.836;5.002;2023-01-20T01:53:33;89.55;;;25.30;;
48765;SDS011;65794;51.836;5.002;2023-01-20T01:56:02;96.22;;;24.20;;
48765;SDS011;65794;51.836;5.002;2023-01-20T01:58:31;81.30;;;23.52;;
48765;SDS011;65794;51.836;5.002;2023-01-20T02:00:59;76.90;;;22.38;;
48765;SDS011;65794;51.836;5.002;2023-01-20T02:03:32;85.65;;;25.20;;
48765;SDS011;65794;51.836;5.002;2023-01-20T02:06:01;93.20;;;25.00;;
48765;SDS011;65794;51.836;5.002;2023-01-20T02:08:29;78.25;;;20.58;;
48765;SDS011;65794;51.836;5.002;2023-01-20T02:10:56;79.28;;;22.75;;
48765;SDS011;65794;51.836;5.002;2023-01-20T02:13:23;102.50;;;25.02;;
48765;SDS011;65794;51.836;5.002;2023-01-20T02:16:03;88.40;;;24.70;;
48765;SDS011;65794;51.836;5.002;2023-01-20T02:23:59;85.22;;;22.45;;
48765;SDS011;65794;51.836;5.002;2023-01-20T02:29:27;91.60;;;22.88;;
48765;SDS011;65794;51.836;5.002;2023-01-20T02:32:04;89.88;;;22.73;;
48765;SDS011;65794;51.836;5.002;2023-01-20T02:37:24;92.63;;;22.73;;
48765;SDS011;65794;51.836;5.002;2023-01-20T02:42:26;84.30;;;22.83;;
48765;SDS011;65794;51.836;5.002;2023-01-20T02:45:15;84.15;;;22.23;;
48765;SDS011;65794;51.836;5.002;2023-01-20T02:52:51;93.78;;;25.60;;
48765;SDS011;65794;51.836;5.002;2023-01-20T02:56:01;104.00;;;28.30;;
48765;SDS011;65794;51.836;5.002;2023-01-20T02:58:10;99.13;;;25.00;;
48765;SDS011;65794;51.836;5.002;2023-01-20T03:00:41;91.32;;;24.08;;
48765;SDS011;65794;51.836;5.002;2023-01-20T03:03:09;44.25;;;13.45;;
48765;SDS011;65794;51.836;5.002;2023-01-20T03:05:45;99.25;;;24.95;;
48765;SDS011;65794;51.836;5.002;2023-01-20T03:10:41;75.40;;;22.30;;
48765;SDS011;65794;51.836;5.002;2023-01-20T03:13:10;82.70;;;25.08;;
48765;SDS011;65794;51.836;5.002;2023-01-20T03:15:51;108.78;;;27.42;;
48765;SDS011;65794;51.836;5.002;2023-01-20T03:18:20;95.60;;;26.65;;
48765;SDS011;65794;51.836;5.002;2023-01-20T03:20:47;75.28;;;20.50;;
48765;SDS011;65794;51.836;5.002;2023-01-20T03:23:14;94.43;;;26.30;;
48765;SDS011;65794;51.836;5.002;2023-01-20T03:25:41;96.05;;;27.80;;
48765;SDS011;65794;51.836;5.002;2023-01-20T03:28:09;99.20;;;25.98;;
48765;SDS011;65794;51.836;5.002;2023-01-20T03:30:38;107.18;;;27.33;;
48765;SDS011;65794;51.836;5.002;2023-01-20T03:33:05;91.95;;;26.50;;
48765;SDS011;65794;51.836;5.002;2023-01-20T03:35:31;86.28;;;25.08;;
48765;SDS011;65794;51.836;5.002;2023-01-20T03:37:59;107.57;;;28.85;;
48765;SDS011;65794;51.836;5.002;2023-01-20T03:40:27;99.63;;;27.95;;
48765;SDS011;65794;51.836;5.002;2023-01-20T03:45:30;113.43;;;28.02;;
48765;SDS011;65794;51.836;5.002;2023-01-20T03:48:17;101.28;;;27.10;;
48765;SDS011;65794;51.836;5.002;2023-01-20T03:53:43;101.60;;;26.77;;
48765;SDS011;65794;51.836;5.002;2023-01-20T03:58:45;79.03;;;24.20;;
48765;SDS011;65794;51.836;5.002;2023-01-20T04:01:14;108.85;;;27.75;;
48765;SDS011;65794;51.836;5.002;2023-01-20T04:03:45;103.60;;;28.20;;
48765;SDS011;65794;51.836;5.002;2023-01-20T04:06:13;107.15;;;27.55;;
48765;SDS011;65794;51.836;5.002;2023-01-20T04:08:51;95.93;;;27.85;;
48765;SDS011;65794;51.836;5.002;2023-01-20T04:11:22;86.85;;;23.40;;
48765;SDS011;65794;51.836;5.002;2023-01-20T04:13:49;115.00;;;29.65;;
48765;SDS011;65794;51.836;5.002;2023-01-20T04:16:16;95.70;;;26.30;;
48765;SDS011;65794;51.836;5.002;2023-01-20T04:18:46;110.63;;;28.73;;
48765;SDS011;65794;51.836;5.002;2023-01-20T04:21:18;100.45;;;25.73;;
48765;SDS011;65794;51.836;5.002;2023-01-20T04:23:59;116.32;;;30.00;;
48765;SDS011;65794;51.836;5.002;2023-01-20T04:26:28;115.78;;;30.10;;
48765;SDS011;65794;51.836;5.002;2023-01-20T04:28:55;133.55;;;31.95;;
48765;SDS011;65794;51.836;5.002;2023-01-20T04:31:22;105.00;;;27.80;;
48765;SDS011;65794;51.836;5.002;2023-01-20T04:33:56;114.75;;;29.85;;
48765;SDS011;65794;51.836;5.002;2023-01-20T04:36:23;121.95;;;28.20;;
48765;SDS011;65794;51.836;5.002;2023-01-20T04:38:50;89.20;;;24.40;;
48765;SDS011;65794;51.836;5.002;2023-01-20T04:41:17;131.57;;;30.70;;
48765;SDS011;65794;51.836;5.002;2023-01-20T04:43:44;122.80;;;30.67;;
48765;SDS011;65794;51.836;5.002;2023-01-20T04:46:12;109.25;;;29.98;;
48765;SDS011;65794;51.836;5.002;2023-01-20T04:48:39;116.63;;;28.42;;
48765;SDS011;65794;51.836;5.002;2023-01-20T04:51:07;118.13;;;29.88;;
48765;SDS011;65794;51.836;5.002;2023-01-20T04:53:34;133.15;;;30.63;;
48765;SDS011;65794;51.836;5.002;2023-01-20T04:56:01;127.55;;;29.55;;
48765;SDS011;65794;51.836;5.002;2023-01-20T04:58:28;122.32;;;30.15;;
48765;SDS011;65794;51.836;5.002;2023-01-20T05:00:55;118.40;;;31.48;;
48765;SDS011;65794;51.836;5.002;2023-01-20T05:03:22;131.32;;;31.38;;
48765;SDS011;65794;51.836;5.002;2023-01-20T05:05:55;135.02;;;32.05;;
48765;SDS011;65794;51.836;5.002;2023-01-20T05:08:22;129.75;;;30.70;;
48765;SDS011;65794;51.836;5.002;2023-01-20T05:10:48;115.57;;;32.05;;
48765;SDS011;65794;51.836;5.002;2023-01-20T05:13:15;130.70;;;32.83;;
48765;SDS011;65794;51.836;5.002;2023-01-20T05:15:42;117.88;;;30.17;;
48765;SDS011;65794;51.836;5.002;2023-01-20T05:18:09;114.85;;;28.73;;
48765;SDS011;65794;51.836;5.002;2023-01-20T05:20:37;111.85;;;29.55;;
48765;SDS011;65794;51.836;5.002;2023-01-20T05:23:04;130.63;;;30.27;;
48765;SDS011;65794;51.836;5.002;2023-01-20T05:25:32;115.15;;;28.65;;
48765;SDS011;65794;51.836;5.002;2023-01-20T05:27:59;133.20;;;32.95;;
48765;SDS011;65794;51.836;5.002;2023-01-20T05:30:26;145.90;;;34.38;;
48765;SDS011;65794;51.836;5.002;2023-01-20T05:32:53;117.68;;;31.02;;
48765;SDS011;65794;51.836;5.002;2023-01-20T05:35:20;127.90;;;33.25;;
48765;SDS011;65794;51.836;5.002;2023-01-20T05:37:47;137.25;;;32.88;;
48765;SDS011;65794;51.836;5.002;2023-01-20T05:40:17;106.50;;;26.25;;
48765;SDS011;65794;51.836;5.002;2023-01-20T05:42:44;131.35;;;31.02;;
48765;SDS011;65794;51.836;5.002;2023-01-20T05:45:11;130.32;;;30.92;;
48765;SDS011;65794;51.836;5.002;2023-01-20T05:47:39;114.90;;;29.67;;
48765;SDS011;65794;51.836;5.002;2023-01-20T05:50:06;142.77;;;33.47;;
48765;SDS011;65794;51.836;5.002;2023-01-20T05:52:33;115.93;;;30.60;;
48765;SDS011;65794;51.836;5.002;2023-01-20T05:54:59;89.13;;;23.02;;
48765;SDS011;65794;51.836;5.002;2023-01-20T05:57:26;107.72;;;30.10;;
48765;SDS011;65794;51.836;5.002;2023-01-20T05:59:53;93.90;;;26.20;;
48765;SDS011;65794;51.836;5.002;2023-01-20T06:02:21;98.18;;;26.13;;
48765;SDS011;65794;51.836;5.002;2023-01-20T06:04:48;114.22;;;29.73;;
48765;SDS011;65794;51.836;5.002;2023-01-20T06:07:15;79.90;;;21.17;;
48765;SDS011;65794;51.836;5.002;2023-01-20T06:09:42;104.65;;;27.95;;
48765;SDS011;65794;51.836;5.002;2023-01-20T06:12:09;65.50;;;16.38;;
48765;SDS011;65794;51.836;5.002;2023-01-20T06:14:35;97.43;;;24.85;;
48765;SDS011;65794;51.836;5.002;2023-01-20T06:17:02;111.60;;;28.20;;
48765;SDS011;65794;51.836;5.002;2023-01-20T06:19:29;111.60;;;28.05;;
48765;SDS011;65794;51.836;5.002;2023-01-20T06:21:56;118.43;;;28.38;;
48765;SDS011;65794;51.836;5.002;2023-01-20T06:24:23;61.28;;;16.88;;
48765;SDS011;65794;51.836;5.002;2023-01-20T06:26:50;97.00;;;24.95;;
48765;SDS011;65794;51.836;5.002;2023-01-20T06:29:17;102.45;;;26.08;;
48765;SDS011;65794;51.836;5.002;2023-01-20T06:31:45;107.93;;;27.70;;
48765;SDS011;65794;51.836;5.002;2023-01-20T06:34:12;82.22;;;22.45;;
48765;SDS011;65794;51.836;5.002;2023-01-20T06:36:39;98.05;;;25.52;;
48765;SDS011;65794;51.836;5.002;2023-01-20T06:39:06;68.38;;;17.83;;
48765;SDS011;65794;51.836;5.002;2023-01-20T06:41:33;80.30;;;21.00;;
48765;SDS011;65794;51.836;5.002;2023-01-20T06:44:00;91.03;;;25.20;;
48765;SDS011;65794;51.836;5.002;2023-01-20T06:46:27;109.80;;;27.60;;
48765;SDS011;65794;51.836;5.002;2023-01-20T06:48:54;105.38;;;25.55;;
48765;SDS011;65794;51.836;5.002;2023-01-20T06:51:27;85.53;;;24.25;;
48765;SDS011;65794;51.836;5.002;2023-01-20T06:53:54;121.32;;;28.38;;
48765;SDS011;65794;51.836;5.002;2023-01-20T06:56:21;100.03;;;26.00;;
48765;SDS011;65794;51.836;5.002;2023-01-20T06:58:48;87.10;;;22.25;;
48765;SDS011;65794;51.836;5.002;2023-01-20T07:01:20;97.15;;;24.70;;
48765;SDS011;65794;51.836;5.002;2023-01-20T07:03:47;94.75;;;25.95;;
48765;SDS011;65794;51.836;5.002;2023-01-20T07:06:34;88.93;;;24.30;;
48765;SDS011;65794;51.836;5.002;2023-01-20T07:09:06;85.68;;;23.30;;
48765;SDS011;65794;51.836;5.002;2023-01-20T07:11:37;70.05;;;18.73;;
48765;SDS011;65794;51.836;5.002;2023-01-20T07:14:04;90.10;;;24.05;;
48765;SDS011;65794;51.836;5.002;2023-01-20T07:16:32;76.70;;;20.95;;
48765;SDS011;65794;51.836;5.002;2023-01-20T07:18:59;75.75;;;22.95;;
48765;SDS011;65794;51.836;5.002;2023-01-20T07:21:26;84.05;;;26.17;;
48765;SDS011;65794;51.836;5.002;2023-01-20T07:23:53;81.65;;;22.38;;
48765;SDS011;65794;51.836;5.002;2023-01-20T07:26:21;107.15;;;25.77;;
48765;SDS011;65794;51.836;5.002;2023-01-20T07:28:48;86.68;;;23.92;;
48765;SDS011;65794;51.836;5.002;2023-01-20T07:31:17;125.22;;;25.23;;
48765;SDS011;65794;51.836;5.002;2023-01-20T07:33:44;96.93;;;24.48;;
48765;SDS011;65794;51.836;5.002;2023-01-20T07:36:12;91.82;;;24.02;;
48765;SDS011;65794;51.836;5.002;2023-01-20T07:38:39;81.30;;;21.95;;
48765;SDS011;65794;51.836;5.002;2023-01-20T07:41:09;90.82;;;25.08;;
48765;SDS011;65794;51.836;5.002;2023-01-20T07:43:42;94.53;;;24.77;;
48765;SDS011;65794;51.836;5.002;2023-01-20T07:46:09;111.30;;;24.77;;
48765;SDS011;65794;51.836;5.002;2023-01-20T07:48:37;81.50;;;21.75;;
48765;SDS011;65794;51.836;5.002;2023-01-20T07:51:05;103.68;;;25.33;;
48765;SDS011;65794;51.836;5.002;2023-01-20T07:53:33;97.03;;;24.67;;
48765;SDS011;65794;51.836;5.002;2023-01-20T07:56:00;92.22;;;23.67;;
48765;SDS011;65794;51.836;5.002;2023-01-20T07:58:28;100.00;;;24.35;;
48765;SDS011;65794;51.836;5.002;2023-01-20T08:00:55;88.30;;;24.63;;
48765;SDS011;65794;51.836;5.002;2023-01-20T08:03:22;93.45;;;25.00;;
48765;SDS011;65794;51.836;5.002;2023-01-20T08:05:52;96.68;;;23.60;;
48765;SDS011;65794;51.836;5.002;2023-01-20T08:08:19;83.43;;;24.00;;
48765;SDS011;65794;51.836;5.002;2023-01-20T08:10:51;74.00;;;21.92;;
48765;SDS011;65794;51.836;5.002;2023-01-20T08:13:18;78.00;;;21.77;;
48765;SDS011;65794;51.836;5.002;2023-01-20T08:15:45;88.13;;;24.40;;
48765;SDS011;65794;51.836;5.002;2023-01-20T08:18:12;85.90;;;21.88;;
48765;SDS011;65794;51.836;5.002;2023-01-20T08:20:39;74.85;;;21.30;;
48765;SDS011;65794;51.836;5.002;2023-01-20T08:23:07;73.97;;;23.13;;
48765;SDS011;65794;51.836;5.002;2023-01-20T08:25:33;86.07;;;22.98;;
48765;SDS011;65794;51.836;5.002;2023-01-20T08:28:00;84.30;;;25.15;;
48765;SDS011;65794;51.836;5.002;2023-01-20T08:30:30;84.95;;;23.67;;
48765;SDS011;65794;51.836;5.002;2023-01-20T08:32:57;63.03;;;20.45;;
48765;SDS011;65794;51.836;5.002;2023-01-20T08:35:24;66.85;;;20.63;;
48765;SDS011;65794;51.836;5.002;2023-01-20T08:37:52;72.57;;;20.55;;
48765;SDS011;65794;51.836;5.002;2023-01-20T08:40:19;63.78;;;20.23;;
48765;SDS011;65794;51.836;5.002;2023-01-20T08:42:45;70.78;;;19.10;;
48765;SDS011;65794;51.836;5.002;2023-01-20T08:45:12;68.97;;;20.17;;
48765;SDS011;65794;51.836;5.002;2023-01-20T08:47:40;62.60;;;19.17;;
48765;SDS011;65794;51.836;5.002;2023-01-20T08:50:12;51.53;;;16.83;;
48765;SDS011;65794;51.836;5.002;2023-01-20T08:52:40;67.75;;;20.45;;
48765;SDS011;65794;51.836;5.002;2023-01-20T08:55:07;56.88;;;17.52;;
48765;SDS011;65794;51.836;5.002;2023-01-20T08:57:35;54.22;;;16.10;;
48765;SDS011;65794;51.836;5.002;2023-01-20T09:00:03;58.35;;;19.02;;
48765;SDS011;65794;51.836;5.002;2023-01-20T09:02:31;66.07;;;17.88;;
48765;SDS011;65794;51.836;5.002;2023-01-20T09:04:58;66.65;;;17.50;;
48765;SDS011;65794;51.836;5.002;2023-01-20T09:07:25;55.55;;;16.85;;
48765;SDS011;65794;51.836;5.002;2023-01-20T09:09:52;60.40;;;17.15;;
48765;SDS011;65794;51.836;5.002;2023-01-20T09:12:19;55.53;;;17.33;;
48765;SDS011;65794;51.836;5.002;2023-01-20T09:14:46;62.63;;;16.33;;
48765;SDS011;65794;51.836;5.002;2023-01-20T09:17:13;59.30;;;16.17;;
48765;SDS011;65794;51.836;5.002;2023-01-20T09:19:40;48.20;;;14.85;;
48765;SDS011;65794;51.836;5.002;2023-01-20T09:22:07;51.70;;;15.80;;
48765;SDS011;65794;51.836;5.002;2023-01-20T09:24:34;43.78;;;13.57;;
48765;SDS011;65794;51.836;5.002;2023-01-20T09:27:01;58.75;;;17.17;;
48765;SDS011;65794;51.836;5.002;2023-01-20T09:29:28;49.95;;;14.65;;
48765;SDS011;65794;51.836;5.002;2023-01-20T09:31:54;58.08;;;15.93;;
48765;SDS011;65794;51.836;5.002;2023-01-20T09:34:25;38.90;;;11.40;;
48765;SDS011;65794;51.836;5.002;2023-01-20T09:36:54;49.78;;;14.35;;
48765;SDS011;65794;51.836;5.002;2023-01-20T09:39:21;54.92;;;14.98;;
48765;SDS011;65794;51.836;5.002;2023-01-20T09:42:27;38.70;;;12.90;;
48765;SDS011;65794;51.836;5.002;2023-01-20T09:45:19;42.03;;;13.30;;
48765;SDS011;65794;51.836;5.002;2023-01-20T09:47:53;42.50;;;12.35;;
48765;SDS011;65794;51.836;5.002;2023-01-20T09:50:27;43.53;;;12.75;;
48765;SDS011;65794;51.836;5.002;2023-01-20T09:53:30;31.08;;;11.27;;
48765;SDS011;65794;51.836;5.002;2023-01-20T09:56:01;34.28;;;11.18;;
48765;SDS011;65794;51.836;5.002;2023-01-20T10:06:19;36.22;;;10.90;;
48765;SDS011;65794;51.836;5.002;2023-01-20T10:08:57;36.88;;;10.68;;
48765;SDS011;65794;51.836;5.002;2023-01-20T10:11:39;29.05;;;10.30;;
48765;SDS011;65794;51.836;5.002;2023-01-20T10:14:15;33.97;;;9.57;;
48765;SDS011;65794;51.836;5.002;2023-01-20T10:19:13;33.97;;;10.70;;
48765;SDS011;65794;51.836;5.002;2023-01-20T10:21:44;34.42;;;9.73;;
48765;SDS011;65794;51.836;5.002;2023-01-20T10:24:22;25.48;;;9.57;;
48765;SDS011;65794;51.836;5.002;2023-01-20T10:26:53;20.85;;;8.38;;
48765;SDS011;65794;51.836;5.002;2023-01-20T10:32:00;26.30;;;9.43;;
48765;SDS011;65794;51.836;5.002;2023-01-20T10:34:29;37.42;;;10.60;;
48765;SDS011;65794;51.836;5.002;2023-01-20T10:36:59;26.38;;;9.40;;
48765;SDS011;65794;51.836;5.002;2023-01-20T10:39:29;22.42;;;8.88;;
48765;SDS011;65794;51.836;5.002;2023-01-20T10:42:02;27.23;;;10.15;;
48765;SDS011;65794;51.836;5.002;2023-01-20T10:44:31;27.17;;;9.82;;
48765;SDS011;65794;51.836;5.002;2023-01-20T10:47:15;26.73;;;9.77;;
48765;SDS011;65794;51.836;5.002;2023-01-20T10:57:33;31.92;;;10.25;;
48765;SDS011;65794;51.836;5.002;2023-01-20T11:00:01;30.48;;;11.73;;
48765;SDS011;65794;51.836;5.002;2023-01-20T11:02:33;27.38;;;11.50;;
48765;SDS011;65794;51.836;5.002;2023-01-20T11:07:31;26.67;;;10.15;;
48765;SDS011;65794;51.836;5.002;2023-01-20T11:10:00;24.02;;;10.02;;
48765;SDS011;65794;51.836;5.002;2023-01-20T11:12:35;31.77;;;11.60;;
48765;SDS011;65794;51.836;5.002;2023-01-20T11:15:05;30.15;;;11.70;;
48765;SDS011;65794;51.836;5.002;2023-01-20T11:17:42;31.20;;;13.18;;
48765;SDS011;65794;51.836;5.002;2023-01-20T11:20:12;30.83;;;12.52;;
48765;SDS011;65794;51.836;5.002;2023-01-20T11:22:43;31.60;;;13.13;;
48765;SDS011;65794;51.836;5.002;2023-01-20T11:25:20;30.33;;;12.02;;
48765;SDS011;65794;51.836;5.002;2023-01-20T11:27:48;29.30;;;12.40;;
48765;SDS011;65794;51.836;5.002;2023-01-20T11:33:08;25.92;;;10.93;;
48765;SDS011;65794;51.836;5.002;2023-01-20T11:35:35;30.60;;;13.20;;
48765;SDS011;65794;51.836;5.002;2023-01-20T11:38:22;28.92;;;12.23;;
48765;SDS011;65794;51.836;5.002;2023-01-20T11:43:35;31.10;;;12.45;;
48765;SDS011;65794;51.836;5.002;2023-01-20T11:48:37;36.25;;;13.80;;
48765;SDS011;65794;51.836;5.002;2023-01-20T11:51:04;35.72;;;12.98;;
48765;SDS011;65794;51.836;5.002;2023-01-20T11:53:31;38.33;;;15.10;;
48765;SDS011;65794;51.836;5.002;2023-01-20T11:56:00;33.53;;;12.85;;
48765;SDS011;65794;51.836;5.002;2023-01-20T11:58:30;40.83;;;15.88;;
48765;SDS011;65794;51.836;5.002;2023-01-20T12:00:58;34.75;;;13.70;;
48765;SDS011;65794;51.836;5.002;2023-01-20T12:08:28;43.47;;;15.10;;
48765;SDS011;65794;51.836;5.002;2023-01-20T12:10:57;37.97;;;15.70;;
48765;SDS011;65794;51.836;5.002;2023-01-20T12:13:31;49.83;;;16.77;;
48765;SDS011;65794;51.836;5.002;2023-01-20T12:16:18;41.30;;;15.63;;
48765;SDS011;65794;51.836;5.002;2023-01-20T12:18:48;41.83;;;14.52;;
48765;SDS011;65794;51.836;5.002;2023-01-20T12:21:35;48.05;;;15.43;;
48765;SDS011;65794;51.836;5.002;2023-01-20T12:24:06;42.08;;;14.18;;
48765;SDS011;65794;51.836;5.002;2023-01-20T12:26:35;52.80;;;15.40;;
48765;SDS011;65794;51.836;5.002;2023-01-20T12:31:38;37.13;;;14.45;;
48765;SDS011;65794;51.836;5.002;2023-01-20T12:34:12;44.28;;;14.32;;
48765;SDS011;65794;51.836;5.002;2023-01-20T12:52:26;41.13;;;12.82;;
48765;SDS011;65794;51.836;5.002;2023-01-20T13:05:06;36.38;;;12.95;;
48765;SDS011;65794;51.836;5.002;2023-01-20T13:10:32;41.20;;;13.73;;
48765;SDS011;65794;51.836;5.002;2023-01-20T13:13:05;41.20;;;13.98;;
48765;SDS011;65794;51.836;5.002;2023-01-20T13:15:37;39.80;;;12.88;;
48765;SDS011;65794;51.836;5.002;2023-01-20T13:20:39;39.92;;;13.35;;
48765;SDS011;65794;51.836;5.002;2023-01-20T13:23:12;32.20;;;11.05;;
48765;SDS011;65794;51.836;5.002;2023-01-20T13:25:40;28.17;;;11.23;;
48765;SDS011;65794;51.836;5.002;2023-01-20T13:28:15;26.25;;;9.75;;
48765;SDS011;65794;51.836;5.002;2023-01-20T13:30:46;28.17;;;10.55;;
48765;SDS011;65794;51.836;5.002;2023-01-20T13:38:26;33.67;;;11.52;;
48765;SDS011;65794;51.836;5.002;2023-01-20T13:40:57;38.10;;;12.15;;
48765;SDS011;65794;51.836;5.002;2023-01-20T13:43:33;35.83;;;12.95;;
48765;SDS011;65794;51.836;5.002;2023-01-20T13:53:53;36.10;;;12.25;;
48765;SDS011;65794;51.836;5.002;2023-01-20T13:56:24;35.38;;;12.18;;
48765;SDS011;65794;51.836;5.002;2023-01-20T13:58:52;28.25;;;11.00;;
48765;SDS011;65794;51.836;5.002;2023-01-20T14:01:19;31.73;;;12.20;;
48765;SDS011;65794;51.836;5.002;2023-01-20T14:04:02;28.52;;;11.30;;
48765;SDS011;65794;51.836;5.002;2023-01-20T14:06:30;32.10;;;11.70;;
48765;SDS011;65794;51.836;5.002;2023-01-20T14:08:59;25.60;;;10.70;;
48765;SDS011;65794;51.836;5.002;2023-01-20T14:11:28;34.45;;;12.40;;
48765;SDS011;65794;51.836;5.002;2023-01-20T14:13:59;29.83;;;11.48;;
48765;SDS011;65794;51.836;5.002;2023-01-20T14:19:04;29.30;;;10.35;;
48765;SDS011;65794;51.836;5.002;2023-01-20T14:21:40;27.17;;;10.27;;
48765;SDS011;65794;51.836;5.002;2023-01-20T14:27:07;30.65;;;11.82;;
48765;SDS011;65794;51.836;5.002;2023-01-20T14:29:34;27.20;;;11.30;;
48765;SDS011;65794;51.836;5.002;2023-01-20T14:32:00;28.85;;;11.30;;
48765;SDS011;65794;51.836;5.002;2023-01-20T14:34:28;29.17;;;11.68;;
48765;SDS011;65794;51.836;5.002;2023-01-20T14:36:57;35.28;;;11.32;;
48765;SDS011;65794;51.836;5.002;2023-01-20T14:39:26;25.33;;;10.85;;
48765;SDS011;65794;51.836;5.002;2023-01-20T14:41:59;25.77;;;10.50;;
48765;SDS011;65794;51.836;5.002;2023-01-20T14:44:27;32.05;;;11.55;;
48765;SDS011;65794;51.836;5.002;2023-01-20T14:46:55;29.52;;;11.43;;
48765;SDS011;65794;51.836;5.002;2023-01-20T14:49:25;39.08;;;14.00;;
48765;SDS011;65794;51.836;5.002;2023-01-20T14:51:53;34.38;;;13.60;;
48765;SDS011;65794;51.836;5.002;2023-01-20T14:54:27;37.08;;;14.30;;
48765;SDS011;65794;51.836;5.002;2023-01-20T14:56:55;32.65;;;14.02;;
48765;SDS011;65794;51.836;5.002;2023-01-20T14:59:23;36.80;;;14.85;;
48765;SDS011;65794;51.836;5.002;2023-01-20T15:01:54;39.45;;;14.25;;
48765;SDS011;65794;51.836;5.002;2023-01-20T15:04:22;43.33;;;14.05;;
48765;SDS011;65794;51.836;5.002;2023-01-20T15:06:52;34.47;;;13.60;;
48765;SDS011;65794;51.836;5.002;2023-01-20T15:09:30;41.38;;;14.30;;
48765;SDS011;65794;51.836;5.002;2023-01-20T15:15:08;29.65;;;12.05;;
48765;SDS011;65794;51.836;5.002;2023-01-20T15:17:40;42.97;;;14.20;;
48765;SDS011;65794;51.836;5.002;2023-01-20T15:22:54;32.63;;;11.98;;
48765;SDS011;65794;51.836;5.002;2023-01-20T15:25:21;35.70;;;13.90;;
48765;SDS011;65794;51.836;5.002;2023-01-20T15:27:51;37.08;;;13.63;;
48765;SDS011;65794;51.836;5.002;2023-01-20T15:30:22;31.52;;;12.40;;
48765;SDS011;65794;51.836;5.002;2023-01-20T15:32:53;39.47;;;15.10;;
48765;SDS011;65794;51.836;5.002;2023-01-20T15:35:21;39.13;;;14.98;;
48765;SDS011;65794;51.836;5.002;2023-01-20T15:37:52;37.00;;;13.95;;
48765;SDS011;65794;51.836;5.002;2023-01-20T15:40:21;39.20;;;13.80;;
48765;SDS011;65794;51.836;5.002;2023-01-20T15:42:48;31.85;;;12.32;;
48765;SDS011;65794;51.836;5.002;2023-01-20T15:45:16;37.90;;;13.63;;
48765;SDS011;65794;51.836;5.002;2023-01-20T15:47:44;41.55;;;14.60;;
48765;SDS011;65794;51.836;5.002;2023-01-20T15:50:19;46.42;;;15.77;;
48765;SDS011;65794;51.836;5.002;2023-01-20T15:52:46;42.17;;;14.75;;
48765;SDS011;65794;51.836;5.002;2023-01-20T15:55:14;38.90;;;15.30;;
48765;SDS011;65794;51.836;5.002;2023-01-20T15:57:41;37.35;;;13.70;;
48765;SDS011;65794;51.836;5.002;2023-01-20T16:00:15;39.45;;;14.95;;
48765;SDS011;65794;51.836;5.002;2023-01-20T16:02:43;44.53;;;15.35;;
48765;SDS011;65794;51.836;5.002;2023-01-20T16:05:10;39.67;;;14.75;;
48765;SDS011;65794;51.836;5.002;2023-01-20T16:07:42;43.08;;;14.73;;
48765;SDS011;65794;51.836;5.002;2023-01-20T16:10:14;38.45;;;15.75;;
48765;SDS011;65794;51.836;5.002;2023-01-20T16:12:42;42.83;;;15.52;;
48765;SDS011;65794;51.836;5.002;2023-01-20T16:15:13;38.30;;;15.60;;
48765;SDS011;65794;51.836;5.002;2023-01-20T16:17:40;43.10;;;14.90;;
48765;SDS011;65794;51.836;5.002;2023-01-20T16:20:21;39.30;;;14.27;;
48765;SDS011;65794;51.836;5.002;2023-01-20T16:22:49;43.35;;;15.30;;
48765;SDS011;65794;51.836;5.002;2023-01-20T16:25:17;43.88;;;14.60;;
48765;SDS011;65794;51.836;5.002;2023-01-20T16:27:44;39.08;;;13.75;;
48765;SDS011;65794;51.836;5.002;2023-01-20T16:30:13;39.25;;;13.88;;
48765;SDS011;65794;51.836;5.002;2023-01-20T16:32:40;42.20;;;14.50;;
48765;SDS011;65794;51.836;5.002;2023-01-20T16:35:07;37.13;;;14.98;;